sensor_id;sensor_type;location;lat;lon;timestamp;P1;durP1;ratioP1;P2;durP2;ratioP2
40537;SDS011;27925;41.874;12.526;2023-06-24T00:01:39;29.67;;;10.80;;
40537;SDS011;27925;41.874;12.526;2023-06-24T00:04:05;33.13;;;10.43;;
40537;SDS011;27925;41.874;12.526;2023-06-24T00:06:30;35.83;;;11.38;;
40537;SDS011;27925;41.874;12.526;2023-06-24T00:08:56;31.15;;;11.60;;
40537;SDS011;27925;41.874;12.526;2023-06-24T00:11:28;37.08;;;10.98;;
40537;SDS011;27925;41.874;12.526;2023-06-24T00:13:55;31.88;;;10.32;;
40537;SDS011;27925;41.874;12.526;2023-06-24T00:16:21;41.08;;;11.73;;
40537;SDS011;27925;41.874;12.526;2023-06-24T00:18:52;40.40;;;11.15;;
40537;SDS011;27925;41.874;12.526;2023-06-24T00:21:25;34.20;;;11.48;;
40537;SDS011;27925;41.874;12.526;2023-06-24T00:23:57;36.73;;;10.23;;
40537;SDS011;27925;41.874;12.526;2023-06-24T00:26:24;39.22;;;10.52;;
40537;SDS011;27925;41.874;12.526;2023-06-24T00:28:50;31.08;;;10.27;;
40537;SDS011;27925;41.874;12.526;2023-06-24T00:31:16;37.47;;;11.27;;
40537;SDS011;27925;41.874;12.526;2023-06-24T00:33:42;33.20;;;11.60;;
40537;SDS011;27925;41.874;12.526;2023-06-24T00:36:07;36.78;;;11.30;;
40537;SDS011;27925;41.874;12.526;2023-06-24T00:38:36;33.20;;;10.88;;
40537;SDS011;27925;41.874;12.526;2023-06-24T00:41:03;37.67;;;11.00;;
40537;SDS011;27925;41.874;12.526;2023-06-24T00:43:29;40.63;;;11.15;;
40537;SDS011;27925;41.874;12.526;2023-06-24T00:45:55;32.60;;;10.68;;
40537;SDS011;27925;41.874;12.526;2023-06-24T00:48:21;36.13;;;9.93;;
40537;SDS011;27925;41.874;12.526;2023-06-24T00:50:48;30.15;;;10.55;;
40537;SDS011;27925;41.874;12.526;2023-06-24T00:53:14;38.85;;;11.30;;
40537;SDS011;27925;41.874;12.526;2023-06-24T00:55:41;34.88;;;10.85;;
40537;SDS011;27925;41.874;12.526;2023-06-24T00:58:06;35.67;;;11.15;;
40537;SDS011;27925;41.874;12.526;2023-06-24T01:00:32;34.33;;;11.40;;
40537;SDS011;27925;41.874;12.526;2023-06-24T01:02:59;36.92;;;11.50;;
40537;SDS011;27925;41.874;12.526;2023-06-24T01:05:28;39.70;;;12.10;;
40537;SDS011;27925;41.874;12.526;2023-06-24T01:07:55;31.55;;;10.18;;
40537;SDS011;27925;41.874;12.526;2023-06-24T01:10:22;29.25;;;11.50;;
40537;SDS011;27925;41.874;12.526;2023-06-24T01:12:48;37.80;;;11.23;;
40537;SDS011;27925;41.874;12.526;2023-06-24T01:15:14;37.85;;;10.75;;
40537;SDS011;27925;41.874;12.526;2023-06-24T01:20:37;34.72;;;10.93;;
40537;SDS011;27925;41.874;12.526;2023-06-24T01:23:23;34.25;;;11.43;;
40537;SDS011;27925;41.874;12.526;2023-06-24T01:31:55;31.08;;;11.50;;
40537;SDS011;27925;41.874;12.526;2023-06-24T01:34:30;32.90;;;10.35;;
40537;SDS011;27925;41.874;12.526;2023-06-24T01:37:20;34.00;;;11.40;;
40537;SDS011;27925;41.874;12.526;2023-06-24T01:40:00;33.95;;;11.15;;
40537;SDS011;27925;41.874;12.526;2023-06-24T01:42:37;29.83;;;11.02;;
40537;SDS011;27925;41.874;12.526;2023-06-24T01:45:06;34.72;;;10.68;;
40537;SDS011;27925;41.874;12.526;2023-06-24T01:47:34;29.38;;;10.45;;
40537;SDS011;27925;41.874;12.526;2023-06-24T01:50:01;34.53;;;12.25;;
40537;SDS011;27925;41.874;12.526;2023-06-24T01:52:28;37.33;;;12.13;;
40537;SDS011;27925;41.874;12.526;2023-06-24T01:54:55;37.42;;;11.20;;
40537;SDS011;27925;41.874;12.526;2023-06-24T01:57:24;32.53;;;11.07;;
40537;SDS011;27925;41.874;12.526;2023-06-24T01:59:53;32.42;;;12.35;;
40537;SDS011;27925;41.874;12.526;2023-06-24T02:02:20;39.28;;;12.80;;
40537;SDS011;27925;41.874;12.526;2023-06-24T02:04:48;43.33;;;12.77;;
40537;SDS011;27925;41.874;12.526;2023-06-24T02:07:16;40.30;;;13.07;;
40537;SDS011;27925;41.874;12.526;2023-06-24T02:09:43;38.05;;;12.05;;
40537;SDS011;27925;41.874;12.526;2023-06-24T02:12:10;41.47;;;12.00;;
40537;SDS011;27925;41.874;12.526;2023-06-24T02:14:37;34.95;;;12.52;;
40537;SDS011;27925;41.874;12.526;2023-06-24T02:17:05;43.67;;;12.68;;
40537;SDS011;27925;41.874;12.526;2023-06-24T02:19:33;38.33;;;11.93;;
40537;SDS011;27925;41.874;12.526;2023-06-24T02:22:00;39.20;;;11.98;;
40537;SDS011;27925;41.874;12.526;2023-06-24T02:24:27;42.40;;;12.15;;
40537;SDS011;27925;41.874;12.526;2023-06-24T02:26:56;35.65;;;12.45;;
40537;SDS011;27925;41.874;12.526;2023-06-24T02:29:23;32.65;;;11.90;;
40537;SDS011;27925;41.874;12.526;2023-06-24T02:31:54;42.28;;;13.07;;
40537;SDS011;27925;41.874;12.526;2023-06-24T02:34:19;38.50;;;13.48;;
40537;SDS011;27925;41.874;12.526;2023-06-24T02:36:47;32.47;;;13.25;;
40537;SDS011;27925;41.874;12.526;2023-06-24T02:39:13;34.92;;;13.68;;
40537;SDS011;27925;41.874;12.526;2023-06-24T02:41:38;32.95;;;13.48;;
40537;SDS011;27925;41.874;12.526;2023-06-24T02:44:04;34.67;;;12.85;;
40537;SDS011;27925;41.874;12.526;2023-06-24T02:46:30;29.77;;;12.93;;
40537;SDS011;27925;41.874;12.526;2023-06-24T02:48:58;32.38;;;12.88;;
40537;SDS011;27925;41.874;12.526;2023-06-24T02:51:25;35.88;;;12.55;;
40537;SDS011;27925;41.874;12.526;2023-06-24T02:53:51;33.92;;;12.18;;
40537;SDS011;27925;41.874;12.526;2023-06-24T02:56:17;40.08;;;12.15;;
40537;SDS011;27925;41.874;12.526;2023-06-24T02:58:46;34.88;;;11.15;;
40537;SDS011;27925;41.874;12.526;2023-06-24T03:01:12;36.97;;;12.43;;
40537;SDS011;27925;41.874;12.526;2023-06-24T03:03:40;34.20;;;11.35;;
40537;SDS011;27925;41.874;12.526;2023-06-24T03:06:07;37.80;;;11.73;;
40537;SDS011;27925;41.874;12.526;2023-06-24T03:08:37;32.47;;;10.55;;
40537;SDS011;27925;41.874;12.526;2023-06-24T03:11:04;34.28;;;10.52;;
40537;SDS011;27925;41.874;12.526;2023-06-24T03:13:30;27.48;;;10.15;;
40537;SDS011;27925;41.874;12.526;2023-06-24T03:15:55;34.03;;;11.77;;
40537;SDS011;27925;41.874;12.526;2023-06-24T03:18:21;36.15;;;10.70;;
40537;SDS011;27925;41.874;12.526;2023-06-24T03:20:47;36.42;;;10.93;;
40537;SDS011;27925;41.874;12.526;2023-06-24T03:23:12;27.83;;;11.35;;
40537;SDS011;27925;41.874;12.526;2023-06-24T03:25:38;33.35;;;11.23;;
40537;SDS011;27925;41.874;12.526;2023-06-24T03:28:04;32.53;;;10.73;;
40537;SDS011;27925;41.874;12.526;2023-06-24T03:30:32;27.08;;;10.30;;
40537;SDS011;27925;41.874;12.526;2023-06-24T03:32:58;34.60;;;10.63;;
40537;SDS011;27925;41.874;12.526;2023-06-24T03:35:24;36.00;;;11.32;;
40537;SDS011;27925;41.874;12.526;2023-06-24T03:37:50;32.72;;;11.23;;
40537;SDS011;27925;41.874;12.526;2023-06-24T03:40:15;33.95;;;11.60;;
40537;SDS011;27925;41.874;12.526;2023-06-24T03:42:41;33.80;;;11.88;;
40537;SDS011;27925;41.874;12.526;2023-06-24T11:36:20;9.18;;;5.07;;
40537;SDS011;27925;41.874;12.526;2023-06-24T11:38:46;11.25;;;5.38;;
40537;SDS011;27925;41.874;12.526;2023-06-24T11:41:12;12.38;;;4.85;;
40537;SDS011;27925;41.874;12.526;2023-06-24T11:43:43;9.38;;;4.68;;
40537;SDS011;27925;41.874;12.526;2023-06-24T11:46:24;10.55;;;4.72;;
40537;SDS011;27925;41.874;12.526;2023-06-24T11:49:04;17.38;;;8.07;;
40537;SDS011;27925;41.874;12.526;2023-06-24T11:51:30;9.82;;;5.45;;
40537;SDS011;27925;41.874;12.526;2023-06-24T11:53:59;9.07;;;4.60;;
40537;SDS011;27925;41.874;12.526;2023-06-24T11:56:36;12.07;;;6.10;;
40537;SDS011;27925;41.874;12.526;2023-06-24T11:59:04;7.68;;;4.45;;
40537;SDS011;27925;41.874;12.526;2023-06-24T12:01:31;8.45;;;4.32;;
40537;SDS011;27925;41.874;12.526;2023-06-24T12:03:59;9.98;;;4.43;;
40537;SDS011;27925;41.874;12.526;2023-06-24T12:06:25;9.40;;;4.68;;
40537;SDS011;27925;41.874;12.526;2023-06-24T12:08:51;9.77;;;4.97;;
40537;SDS011;27925;41.874;12.526;2023-06-24T12:11:17;12.05;;;4.85;;
40537;SDS011;27925;41.874;12.526;2023-06-24T12:13:42;11.18;;;4.38;;
40537;SDS011;27925;41.874;12.526;2023-06-24T12:16:08;19.85;;;7.30;;
40537;SDS011;27925;41.874;12.526;2023-06-24T12:18:34;10.75;;;4.35;;
40537;SDS011;27925;41.874;12.526;2023-06-24T12:20:59;7.82;;;4.80;;
40537;SDS011;27925;41.874;12.526;2023-06-24T12:23:25;8.60;;;4.47;;
40537;SDS011;27925;41.874;12.526;2023-06-24T12:25:51;10.30;;;4.70;;
40537;SDS011;27925;41.874;12.526;2023-06-24T12:28:16;8.63;;;4.18;;
40537;SDS011;27925;41.874;12.526;2023-06-24T12:30:42;8.60;;;4.00;;
40537;SDS011;27925;41.874;12.526;2023-06-24T12:33:08;10.32;;;3.90;;
40537;SDS011;27925;41.874;12.526;2023-06-24T12:35:33;9.43;;;4.38;;
40537;SDS011;27925;41.874;12.526;2023-06-24T12:37:59;12.18;;;3.85;;
40537;SDS011;27925;41.874;12.526;2023-06-24T12:40:25;14.02;;;4.20;;
40537;SDS011;27925;41.874;12.526;2023-06-24T12:42:50;7.10;;;3.58;;
40537;SDS011;27925;41.874;12.526;2023-06-24T12:45:16;9.52;;;4.47;;
40537;SDS011;27925;41.874;12.526;2023-06-24T12:47:42;11.90;;;4.13;;
40537;SDS011;27925;41.874;12.526;2023-06-24T12:50:08;8.30;;;3.70;;
40537;SDS011;27925;41.874;12.526;2023-06-24T12:52:34;11.27;;;5.80;;
40537;SDS011;27925;41.874;12.526;2023-06-24T12:54:59;11.25;;;4.35;;
40537;SDS011;27925;41.874;12.526;2023-06-24T12:57:25;12.20;;;4.63;;
40537;SDS011;27925;41.874;12.526;2023-06-24T12:59:51;13.07;;;5.55;;
40537;SDS011;27925;41.874;12.526;2023-06-24T13:02:17;9.93;;;3.45;;
40537;SDS011;27925;41.874;12.526;2023-06-24T13:04:42;13.27;;;4.88;;
40537;SDS011;27925;41.874;12.526;2023-06-24T13:07:08;9.70;;;3.80;;
40537;SDS011;27925;41.874;12.526;2023-06-24T13:09:34;11.52;;;4.13;;
40537;SDS011;27925;41.874;12.526;2023-06-24T13:12:00;8.88;;;3.47;;
40537;SDS011;27925;41.874;12.526;2023-06-24T13:14:26;5.97;;;3.15;;
40537;SDS011;27925;41.874;12.526;2023-06-24T13:16:53;7.72;;;3.42;;
40537;SDS011;27925;41.874;12.526;2023-06-24T13:19:20;9.60;;;3.42;;
40537;SDS011;27925;41.874;12.526;2023-06-24T13:21:46;6.35;;;3.20;;
40537;SDS011;27925;41.874;12.526;2023-06-24T13:24:11;9.48;;;3.42;;
40537;SDS011;27925;41.874;12.526;2023-06-24T13:26:38;9.57;;;4.00;;
40537;SDS011;27925;41.874;12.526;2023-06-24T13:29:03;6.70;;;3.55;;
40537;SDS011;27925;41.874;12.526;2023-06-24T13:31:29;8.98;;;3.50;;
40537;SDS011;27925;41.874;12.526;2023-06-24T13:33:55;9.35;;;4.00;;
40537;SDS011;27925;41.874;12.526;2023-06-24T13:36:31;9.05;;;4.72;;
40537;SDS011;27925;41.874;12.526;2023-06-24T13:39:00;8.75;;;4.10;;
40537;SDS011;27925;41.874;12.526;2023-06-24T13:41:29;9.48;;;4.03;;
40537;SDS011;27925;41.874;12.526;2023-06-24T13:43:57;12.32;;;3.42;;
40537;SDS011;27925;41.874;12.526;2023-06-24T13:46:27;9.43;;;3.78;;
40537;SDS011;27925;41.874;12.526;2023-06-24T13:48:54;18.08;;;7.22;;
40537;SDS011;27925;41.874;12.526;2023-06-24T13:51:20;11.82;;;4.40;;
40537;SDS011;27925;41.874;12.526;2023-06-24T13:53:50;8.68;;;3.65;;
40537;SDS011;27925;41.874;12.526;2023-06-24T13:56:17;8.80;;;4.38;;
40537;SDS011;27925;41.874;12.526;2023-06-24T13:58:44;7.72;;;3.83;;
40537;SDS011;27925;41.874;12.526;2023-06-24T14:01:11;8.52;;;3.63;;
40537;SDS011;27925;41.874;12.526;2023-06-24T14:03:37;9.38;;;3.58;;
40537;SDS011;27925;41.874;12.526;2023-06-24T14:06:03;11.63;;;3.42;;
40537;SDS011;27925;41.874;12.526;2023-06-24T14:08:29;6.63;;;3.40;;
40537;SDS011;27925;41.874;12.526;2023-06-24T14:10:57;11.35;;;4.30;;
40537;SDS011;27925;41.874;12.526;2023-06-24T14:13:23;11.50;;;5.03;;
40537;SDS011;27925;41.874;12.526;2023-06-24T14:15:49;13.93;;;4.68;;
40537;SDS011;27925;41.874;12.526;2023-06-24T14:18:15;10.07;;;5.30;;
40537;SDS011;27925;41.874;12.526;2023-06-24T14:20:43;13.25;;;4.85;;
40537;SDS011;27925;41.874;12.526;2023-06-24T14:23:09;9.85;;;4.50;;
40537;SDS011;27925;41.874;12.526;2023-06-24T14:25:35;12.27;;;5.40;;
40537;SDS011;27925;41.874;12.526;2023-06-24T14:28:02;16.38;;;5.15;;
40537;SDS011;27925;41.874;12.526;2023-06-24T14:30:31;10.05;;;4.07;;
40537;SDS011;27925;41.874;12.526;2023-06-24T14:32:58;10.05;;;3.90;;
40537;SDS011;27925;41.874;12.526;2023-06-24T14:35:23;13.02;;;6.13;;
40537;SDS011;27925;41.874;12.526;2023-06-24T14:37:50;9.70;;;5.53;;
40537;SDS011;27925;41.874;12.526;2023-06-24T14:40:16;9.77;;;4.75;;
40537;SDS011;27925;41.874;12.526;2023-06-24T14:42:41;12.35;;;5.25;;
40537;SDS011;27925;41.874;12.526;2023-06-24T14:45:07;10.63;;;4.68;;
40537;SDS011;27925;41.874;12.526;2023-06-24T14:47:33;8.15;;;4.53;;
40537;SDS011;27925;41.874;12.526;2023-06-24T14:49:59;10.63;;;5.25;;
40537;SDS011;27925;41.874;12.526;2023-06-24T14:52:25;10.82;;;5.25;;
40537;SDS011;27925;41.874;12.526;2023-06-24T14:54:50;11.75;;;5.07;;
40537;SDS011;27925;41.874;12.526;2023-06-24T14:57:16;12.55;;;5.50;;
40537;SDS011;27925;41.874;12.526;2023-06-24T14:59:42;14.18;;;5.40;;
40537;SDS011;27925;41.874;12.526;2023-06-24T15:02:08;13.73;;;5.60;;
40537;SDS011;27925;41.874;12.526;2023-06-24T15:04:35;11.13;;;5.18;;
40537;SDS011;27925;41.874;12.526;2023-06-24T15:07:01;14.45;;;5.85;;
40537;SDS011;27925;41.874;12.526;2023-06-24T15:09:27;11.05;;;5.43;;
40537;SDS011;27925;41.874;12.526;2023-06-24T15:11:52;11.57;;;5.30;;
40537;SDS011;27925;41.874;12.526;2023-06-24T15:14:18;16.38;;;5.88;;
40537;SDS011;27925;41.874;12.526;2023-06-24T15:16:44;22.20;;;7.82;;
40537;SDS011;27925;41.874;12.526;2023-06-24T15:19:10;13.18;;;5.68;;
40537;SDS011;27925;41.874;12.526;2023-06-24T15:21:35;13.20;;;5.88;;
40537;SDS011;27925;41.874;12.526;2023-06-24T15:24:01;15.75;;;6.53;;
40537;SDS011;27925;41.874;12.526;2023-06-24T15:26:27;12.32;;;6.53;;
40537;SDS011;27925;41.874;12.526;2023-06-24T15:28:53;17.65;;;6.60;;
40537;SDS011;27925;41.874;12.526;2023-06-24T15:31:19;20.60;;;7.05;;
40537;SDS011;27925;41.874;12.526;2023-06-24T15:33:45;14.63;;;6.95;;
40537;SDS011;27925;41.874;12.526;2023-06-24T15:36:10;10.68;;;6.80;;
40537;SDS011;27925;41.874;12.526;2023-06-24T15:38:36;13.57;;;6.65;;
40537;SDS011;27925;41.874;12.526;2023-06-24T15:41:02;10.52;;;6.65;;
40537;SDS011;27925;41.874;12.526;2023-06-24T15:43:27;13.45;;;6.53;;
40537;SDS011;27925;41.874;12.526;2023-06-24T15:45:53;12.52;;;6.70;;
40537;SDS011;27925;41.874;12.526;2023-06-24T15:48:19;14.55;;;6.88;;
40537;SDS011;27925;41.874;12.526;2023-06-24T15:50:45;11.55;;;6.47;;
40537;SDS011;27925;41.874;12.526;2023-06-24T15:53:10;17.17;;;7.25;;
40537;SDS011;27925;41.874;12.526;2023-06-24T15:55:36;13.05;;;6.15;;
40537;SDS011;27925;41.874;12.526;2023-06-24T15:58:02;9.75;;;6.45;;
40537;SDS011;27925;41.874;12.526;2023-06-24T16:00:27;13.77;;;6.78;;
40537;SDS011;27925;41.874;12.526;2023-06-24T16:02:53;15.32;;;6.53;;
40537;SDS011;27925;41.874;12.526;2023-06-24T16:05:19;11.98;;;6.28;;
40537;SDS011;27925;41.874;12.526;2023-06-24T16:07:45;11.98;;;6.15;;
40537;SDS011;27925;41.874;12.526;2023-06-24T16:10:10;14.90;;;6.10;;
40537;SDS011;27925;41.874;12.526;2023-06-24T16:12:36;13.05;;;6.70;;
40537;SDS011;27925;41.874;12.526;2023-06-24T16:15:02;10.75;;;5.95;;
40537;SDS011;27925;41.874;12.526;2023-06-24T16:17:28;15.25;;;6.28;;
40537;SDS011;27925;41.874;12.526;2023-06-24T16:19:53;11.88;;;6.15;;
40537;SDS011;27925;41.874;12.526;2023-06-24T16:22:19;11.68;;;5.85;;
40537;SDS011;27925;41.874;12.526;2023-06-24T16:24:45;8.88;;;5.97;;
40537;SDS011;27925;41.874;12.526;2023-06-24T16:27:11;13.38;;;6.90;;
40537;SDS011;27925;41.874;12.526;2023-06-24T16:29:36;12.18;;;6.35;;
40537;SDS011;27925;41.874;12.526;2023-06-24T16:32:02;11.70;;;6.32;;
40537;SDS011;27925;41.874;12.526;2023-06-24T16:34:28;13.73;;;6.68;;
40537;SDS011;27925;41.874;12.526;2023-06-24T16:36:53;12.30;;;6.38;;
40537;SDS011;27925;41.874;12.526;2023-06-24T16:39:19;9.88;;;6.25;;
40537;SDS011;27925;41.874;12.526;2023-06-24T16:41:46;14.13;;;7.00;;
40537;SDS011;27925;41.874;12.526;2023-06-24T16:44:12;9.95;;;6.13;;
40537;SDS011;27925;41.874;12.526;2023-06-24T16:46:38;12.40;;;6.05;;
40537;SDS011;27925;41.874;12.526;2023-06-24T16:49:03;10.00;;;5.68;;
40537;SDS011;27925;41.874;12.526;2023-06-24T16:51:35;9.57;;;5.50;;
40537;SDS011;27925;41.874;12.526;2023-06-24T16:54:01;14.40;;;5.90;;
40537;SDS011;27925;41.874;12.526;2023-06-24T16:56:28;10.32;;;5.85;;
40537;SDS011;27925;41.874;12.526;2023-06-24T16:58:54;11.02;;;6.25;;
40537;SDS011;27925;41.874;12.526;2023-06-24T17:01:20;13.07;;;6.13;;
40537;SDS011;27925;41.874;12.526;2023-06-24T17:03:45;13.32;;;7.13;;
40537;SDS011;27925;41.874;12.526;2023-06-24T17:06:11;10.48;;;7.97;;
40537;SDS011;27925;41.874;12.526;2023-06-24T17:08:37;11.88;;;7.00;;
40537;SDS011;27925;41.874;12.526;2023-06-24T17:11:03;8.27;;;5.40;;
40537;SDS011;27925;41.874;12.526;2023-06-24T17:13:28;12.20;;;6.53;;
40537;SDS011;27925;41.874;12.526;2023-06-24T17:15:54;11.70;;;6.60;;
40537;SDS011;27925;41.874;12.526;2023-06-24T17:18:20;8.48;;;6.00;;
40537;SDS011;27925;41.874;12.526;2023-06-24T17:20:46;15.57;;;6.38;;
40537;SDS011;27925;41.874;12.526;2023-06-24T17:23:11;13.57;;;6.68;;
40537;SDS011;27925;41.874;12.526;2023-06-24T17:25:37;9.23;;;5.93;;
40537;SDS011;27925;41.874;12.526;2023-06-24T17:28:03;13.40;;;5.80;;
40537;SDS011;27925;41.874;12.526;2023-06-24T17:30:29;10.82;;;5.72;;
40537;SDS011;27925;41.874;12.526;2023-06-24T17:32:54;10.93;;;5.60;;
40537;SDS011;27925;41.874;12.526;2023-06-24T17:35:20;9.02;;;5.32;;
40537;SDS011;27925;41.874;12.526;2023-06-24T21:44:05;13.07;;;8.07;;
40537;SDS011;27925;41.874;12.526;2023-06-24T21:46:30;15.32;;;8.25;;
40537;SDS011;27925;41.874;12.526;2023-06-24T21:48:56;13.95;;;8.88;;
40537;SDS011;27925;41.874;12.526;2023-06-24T21:51:22;12.80;;;8.90;;
40537;SDS011;27925;41.874;12.526;2023-06-24T21:53:49;15.82;;;8.98;;
40537;SDS011;27925;41.874;12.526;2023-06-24T21:56:14;14.00;;;8.55;;
40537;SDS011;27925;41.874;12.526;2023-06-24T21:58:40;12.70;;;8.57;;
40537;SDS011;27925;41.874;12.526;2023-06-24T22:01:06;15.68;;;9.35;;
40537;SDS011;27925;41.874;12.526;2023-06-24T22:03:32;20.35;;;9.68;;
40537;SDS011;27925;41.874;12.526;2023-06-24T22:05:58;16.40;;;9.27;;
40537;SDS011;27925;41.874;12.526;2023-06-24T22:08:24;14.80;;;9.68;;
40537;SDS011;27925;41.874;12.526;2023-06-24T22:10:49;17.58;;;9.63;;
40537;SDS011;27925;41.874;12.526;2023-06-24T22:13:15;18.35;;;9.98;;
40537;SDS011;27925;41.874;12.526;2023-06-24T22:15:41;14.55;;;9.77;;
40537;SDS011;27925;41.874;12.526;2023-06-24T22:18:06;18.98;;;9.40;;
40537;SDS011;27925;41.874;12.526;2023-06-24T22:20:32;15.85;;;9.75;;
40537;SDS011;27925;41.874;12.526;2023-06-24T22:22:58;12.35;;;8.85;;
40537;SDS011;27925;41.874;12.526;2023-06-24T22:25:23;15.27;;;9.40;;
40537;SDS011;27925;41.874;12.526;2023-06-24T22:27:49;14.70;;;9.20;;
40537;SDS011;27925;41.874;12.526;2023-06-24T22:30:15;16.83;;;10.02;;
40537;SDS011;27925;41.874;12.526;2023-06-24T22:32:41;16.45;;;9.40;;
40537;SDS011;27925;41.874;12.526;2023-06-24T22:35:07;16.40;;;10.40;;
40537;SDS011;27925;41.874;12.526;2023-06-24T22:37:33;17.15;;;9.43;;
40537;SDS011;27925;41.874;12.526;2023-06-24T22:39:59;14.50;;;8.85;;
40537;SDS011;27925;41.874;12.526;2023-06-24T22:42:24;15.65;;;9.48;;
40537;SDS011;27925;41.874;12.526;2023-06-24T22:44:51;14.48;;;9.20;;
40537;SDS011;27925;41.874;12.526;2023-06-24T22:47:17;13.95;;;8.50;;
40537;SDS011;27925;41.874;12.526;2023-06-24T22:49:43;13.95;;;8.95;;
40537;SDS011;27925;41.874;12.526;2023-06-24T22:52:08;14.55;;;8.27;;
40537;SDS011;27925;41.874;12.526;2023-06-24T22:54:34;11.25;;;7.38;;
40537;SDS011;27925;41.874;12.526;2023-06-24T22:57:00;15.57;;;7.88;;
40537;SDS011;27925;41.874;12.526;2023-06-24T22:59:25;12.02;;;6.85;;
40537;SDS011;27925;41.874;12.526;2023-06-24T23:01:51;11.27;;;5.93;;
40537;SDS011;27925;41.874;12.526;2023-06-24T23:04:17;8.38;;;4.50;;
40537;SDS011;27925;41.874;12.526;2023-06-24T23:06:43;7.93;;;4.22;;
40537;SDS011;27925;41.874;12.526;2023-06-24T23:09:08;7.00;;;3.88;;
40537;SDS011;27925;41.874;12.526;2023-06-24T23:11:36;6.15;;;4.20;;
40537;SDS011;27925;41.874;12.526;2023-06-24T23:14:02;8.18;;;3.70;;
40537;SDS011;27925;41.874;12.526;2023-06-24T23:16:30;9.00;;;4.63;;
40537;SDS011;27925;41.874;12.526;2023-06-24T23:18:56;7.60;;;3.95;;
40537;SDS011;27925;41.874;12.526;2023-06-24T23:21:22;9.43;;;3.70;;
40537;SDS011;27925;41.874;12.526;2023-06-24T23:23:48;7.38;;;3.92;;
40537;SDS011;27925;41.874;12.526;2023-06-24T23:26:14;8.90;;;3.63;;
40537;SDS011;27925;41.874;12.526;2023-06-24T23:28:41;8.40;;;4.38;;
40537;SDS011;27925;41.874;12.526;2023-06-24T23:31:10;7.05;;;4.22;;
40537;SDS011;27925;41.874;12.526;2023-06-24T23:33:37;7.68;;;5.03;;
40537;SDS011;27925;41.874;12.526;2023-06-24T23:36:04;9.93;;;6.20;;
40537;SDS011;27925;41.874;12.526;2023-06-24T23:38:30;9.48;;;6.63;;
40537;SDS011;27925;41.874;12.526;2023-06-24T23:40:56;10.23;;;6.68;;
40537;SDS011;27925;41.874;12.526;2023-06-24T23:43:23;8.85;;;6.28;;
40537;SDS011;27925;41.874;12.526;2023-06-24T23:45:50;9.00;;;6.22;;
40537;SDS011;27925;41.874;12.526;2023-06-24T23:48:16;8.85;;;6.30;;
40537;SDS011;27925;41.874;12.526;2023-06-24T23:50:42;9.35;;;4.95;;
40537;SDS011;27925;41.874;12.526;2023-06-24T23:53:08;7.03;;;4.20;;
40537;SDS011;27925;41.874;12.526;2023-06-24T23:55:34;7.75;;;3.92;;
40537;SDS011;27925;41.874;12.526;2023-06-24T23:58:01;11.20;;;3.67;;
